sensor_id;sensor_type;location;lat;lon;timestamp;temperature;humidity
12013;DHT22;6065;48.138;16.402;2023-03-17T00:02:13;3.50;89.30
12013;DHT22;6065;48.138;16.402;2023-03-17T00:04:40;3.50;89.50
12013;DHT22;6065;48.138;16.402;2023-03-17T00:07:08;3.40;89.40
12013;DHT22;6065;48.138;16.402;2023-03-17T00:09:35;3.50;89.60
12013;DHT22;6065;48.138;16.402;2023-03-17T00:12:04;3.40;89.50
12013;DHT22;6065;48.138;16.402;2023-03-17T00:14:32;3.40;89.80
12013;DHT22;6065;48.138;16.402;2023-03-17T00:16:58;3.40;90.10
12013;DHT22;6065;48.138;16.402;2023-03-17T00:19:27;3.40;89.80
12013;DHT22;6065;48.138;16.402;2023-03-17T00:21:55;3.40;89.80
12013;DHT22;6065;48.138;16.402;2023-03-17T00:24:22;3.50;90.00
12013;DHT22;6065;48.138;16.402;2023-03-17T00:26:49;3.40;89.80
12013;DHT22;6065;48.138;16.402;2023-03-17T00:29:15;3.30;90.00
12013;DHT22;6065;48.138;16.402;2023-03-17T00:31:42;3.20;90.20
12013;DHT22;6065;48.138;16.402;2023-03-17T00:34:10;3.20;90.40
12013;DHT22;6065;48.138;16.402;2023-03-17T00:36:38;3.10;90.40
12013;DHT22;6065;48.138;16.402;2023-03-17T00:39:08;3.10;90.30
12013;DHT22;6065;48.138;16.402;2023-03-17T00:41:38;3.10;90.30
12013;DHT22;6065;48.138;16.402;2023-03-17T00:44:05;3.10;90.30
12013;DHT22;6065;48.138;16.402;2023-03-17T00:46:31;3.10;90.30
12013;DHT22;6065;48.138;16.402;2023-03-17T00:49:02;3.10;90.20
12013;DHT22;6065;48.138;16.402;2023-03-17T00:51:29;3.20;90.10
12013;DHT22;6065;48.138;16.402;2023-03-17T00:53:57;3.30;90.00
12013;DHT22;6065;48.138;16.402;2023-03-17T00:56:24;3.30;89.60
12013;DHT22;6065;48.138;16.402;2023-03-17T00:58:51;3.30;89.30
12013;DHT22;6065;48.138;16.402;2023-03-17T01:01:18;3.30;89.50
12013;DHT22;6065;48.138;16.402;2023-03-17T01:03:44;3.30;89.60
12013;DHT22;6065;48.138;16.402;2023-03-17T01:06:11;3.30;89.50
12013;DHT22;6065;48.138;16.402;2023-03-17T01:08:40;3.40;89.60
12013;DHT22;6065;48.138;16.402;2023-03-17T01:11:11;3.40;89.40
12013;DHT22;6065;48.138;16.402;2023-03-17T01:13:40;3.40;89.50
12013;DHT22;6065;48.138;16.402;2023-03-17T01:16:07;3.50;89.40
12013;DHT22;6065;48.138;16.402;2023-03-17T01:18:35;3.50;89.40
12013;DHT22;6065;48.138;16.402;2023-03-17T01:21:02;3.50;89.40
12013;DHT22;6065;48.138;16.402;2023-03-17T01:23:29;3.50;89.40
12013;DHT22;6065;48.138;16.402;2023-03-17T01:25:56;3.50;89.40
12013;DHT22;6065;48.138;16.402;2023-03-17T01:28:24;3.40;89.40
12013;DHT22;6065;48.138;16.402;2023-03-17T01:30:51;3.40;89.50
12013;DHT22;6065;48.138;16.402;2023-03-17T01:33:17;3.40;89.50
12013;DHT22;6065;48.138;16.402;2023-03-17T01:35:45;3.50;89.70
12013;DHT22;6065;48.138;16.402;2023-03-17T01:38:11;3.50;89.60
12013;DHT22;6065;48.138;16.402;2023-03-17T01:40:41;3.60;89.50
12013;DHT22;6065;48.138;16.402;2023-03-17T01:43:15;3.50;89.60
12013;DHT22;6065;48.138;16.402;2023-03-17T01:48:29;3.50;89.80
12013;DHT22;6065;48.138;16.402;2023-03-17T01:50:56;3.50;90.00
12013;DHT22;6065;48.138;16.402;2023-03-17T01:53:23;3.50;90.00
12013;DHT22;6065;48.138;16.402;2023-03-17T01:55:50;3.50;90.10
12013;DHT22;6065;48.138;16.402;2023-03-17T01:58:18;3.50;90.10
12013;DHT22;6065;48.138;16.402;2023-03-17T02:00:46;3.40;90.20
12013;DHT22;6065;48.138;16.402;2023-03-17T02:03:13;3.40;90.20
12013;DHT22;6065;48.138;16.402;2023-03-17T02:05:41;3.40;90.40
12013;DHT22;6065;48.138;16.402;2023-03-17T02:08:09;3.40;90.40
12013;DHT22;6065;48.138;16.402;2023-03-17T02:10:36;3.50;90.40
12013;DHT22;6065;48.138;16.402;2023-03-17T02:13:03;3.50;90.30
12013;DHT22;6065;48.138;16.402;2023-03-17T02:15:37;3.50;90.30
12013;DHT22;6065;48.138;16.402;2023-03-17T02:18:04;3.50;90.40
12013;DHT22;6065;48.138;16.402;2023-03-17T02:23:20;3.40;90.30
12013;DHT22;6065;48.138;16.402;2023-03-17T02:25:47;3.40;90.50
12013;DHT22;6065;48.138;16.402;2023-03-17T02:28:15;3.30;90.50
12013;DHT22;6065;48.138;16.402;2023-03-17T02:30:42;3.30;90.70
12013;DHT22;6065;48.138;16.402;2023-03-17T02:33:09;3.30;90.80
12013;DHT22;6065;48.138;16.402;2023-03-17T02:35:36;3.30;91.00
12013;DHT22;6065;48.138;16.402;2023-03-17T02:38:03;3.30;91.10
12013;DHT22;6065;48.138;16.402;2023-03-17T02:40:31;3.30;91.10
12013;DHT22;6065;48.138;16.402;2023-03-17T02:42:58;3.30;91.10
12013;DHT22;6065;48.138;16.402;2023-03-17T02:45:25;3.20;91.20
12013;DHT22;6065;48.138;16.402;2023-03-17T02:47:52;3.10;91.30
12013;DHT22;6065;48.138;16.402;2023-03-17T02:50:20;3.10;91.70
12013;DHT22;6065;48.138;16.402;2023-03-17T02:52:47;3.10;91.80
12013;DHT22;6065;48.138;16.402;2023-03-17T02:55:14;3.10;91.80
12013;DHT22;6065;48.138;16.402;2023-03-17T02:57:42;3.10;91.90
12013;DHT22;6065;48.138;16.402;2023-03-17T03:00:09;3.10;92.00
12013;DHT22;6065;48.138;16.402;2023-03-17T03:02:36;3.10;92.10
12013;DHT22;6065;48.138;16.402;2023-03-17T03:05:03;3.10;92.20
12013;DHT22;6065;48.138;16.402;2023-03-17T03:07:30;3.20;92.40
12013;DHT22;6065;48.138;16.402;2023-03-17T03:09:57;3.20;92.30
12013;DHT22;6065;48.138;16.402;2023-03-17T03:12:23;3.10;92.40
12013;DHT22;6065;48.138;16.402;2023-03-17T03:14:52;3.10;92.80
12013;DHT22;6065;48.138;16.402;2023-03-17T03:17:19;3.10;92.50
12013;DHT22;6065;48.138;16.402;2023-03-17T03:19:46;3.10;92.50
12013;DHT22;6065;48.138;16.402;2023-03-17T03:22:12;3.00;92.50
12013;DHT22;6065;48.138;16.402;2023-03-17T03:24:39;3.00;92.60
12013;DHT22;6065;48.138;16.402;2023-03-17T03:27:06;2.90;92.60
12013;DHT22;6065;48.138;16.402;2023-03-17T03:29:33;2.80;92.60
12013;DHT22;6065;48.138;16.402;2023-03-17T03:32:02;2.70;92.70
12013;DHT22;6065;48.138;16.402;2023-03-17T03:34:28;2.70;92.70
12013;DHT22;6065;48.138;16.402;2023-03-17T03:36:56;2.70;92.80
12013;DHT22;6065;48.138;16.402;2023-03-17T03:39:22;2.70;92.60
12013;DHT22;6065;48.138;16.402;2023-03-17T03:41:49;2.70;92.50
12013;DHT22;6065;48.138;16.402;2023-03-17T03:44:16;2.70;92.50
12013;DHT22;6065;48.138;16.402;2023-03-17T03:46:42;2.70;92.50
12013;DHT22;6065;48.138;16.402;2023-03-17T03:49:10;2.70;92.50
12013;DHT22;6065;48.138;16.402;2023-03-17T03:51:37;2.80;92.30
12013;DHT22;6065;48.138;16.402;2023-03-17T03:54:04;2.70;92.20
12013;DHT22;6065;48.138;16.402;2023-03-17T03:56:30;2.60;92.20
12013;DHT22;6065;48.138;16.402;2023-03-17T03:58:57;2.60;92.30
12013;DHT22;6065;48.138;16.402;2023-03-17T04:01:24;2.70;92.50
12013;DHT22;6065;48.138;16.402;2023-03-17T04:03:51;2.70;92.40
12013;DHT22;6065;48.138;16.402;2023-03-17T04:06:19;2.80;92.30
12013;DHT22;6065;48.138;16.402;2023-03-17T04:08:46;2.80;92.30
12013;DHT22;6065;48.138;16.402;2023-03-17T04:11:13;2.80;92.30
12013;DHT22;6065;48.138;16.402;2023-03-17T04:13:39;2.80;92.20
12013;DHT22;6065;48.138;16.402;2023-03-17T04:16:06;2.80;92.20
12013;DHT22;6065;48.138;16.402;2023-03-17T04:18:33;2.80;92.20
12013;DHT22;6065;48.138;16.402;2023-03-17T04:21:00;2.80;92.20
12013;DHT22;6065;48.138;16.402;2023-03-17T04:23:28;2.80;92.30
12013;DHT22;6065;48.138;16.402;2023-03-17T04:25:55;2.70;92.20
12013;DHT22;6065;48.138;16.402;2023-03-17T04:28:22;2.70;92.40
12013;DHT22;6065;48.138;16.402;2023-03-17T04:30:49;2.80;92.40
12013;DHT22;6065;48.138;16.402;2023-03-17T04:33:16;2.80;92.20
12013;DHT22;6065;48.138;16.402;2023-03-17T04:35:44;2.80;92.20
12013;DHT22;6065;48.138;16.402;2023-03-17T04:38:11;2.80;92.10
12013;DHT22;6065;48.138;16.402;2023-03-17T04:40:39;2.80;92.00
12013;DHT22;6065;48.138;16.402;2023-03-17T04:43:06;2.70;91.80
12013;DHT22;6065;48.138;16.402;2023-03-17T04:45:34;2.80;91.80
12013;DHT22;6065;48.138;16.402;2023-03-17T04:48:02;2.70;91.80
12013;DHT22;6065;48.138;16.402;2023-03-17T04:50:28;2.80;91.70
12013;DHT22;6065;48.138;16.402;2023-03-17T04:52:57;2.70;91.70
12013;DHT22;6065;48.138;16.402;2023-03-17T04:55:23;2.70;91.70
12013;DHT22;6065;48.138;16.402;2023-03-17T04:57:51;2.80;91.70
12013;DHT22;6065;48.138;16.402;2023-03-17T05:00:18;2.80;91.70
12013;DHT22;6065;48.138;16.402;2023-03-17T05:02:45;2.80;91.60
12013;DHT22;6065;48.138;16.402;2023-03-17T05:05:12;2.80;91.50
12013;DHT22;6065;48.138;16.402;2023-03-17T05:07:39;2.80;91.50
12013;DHT22;6065;48.138;16.402;2023-03-17T05:10:06;2.90;91.60
12013;DHT22;6065;48.138;16.402;2023-03-17T05:12:33;2.80;91.60
12013;DHT22;6065;48.138;16.402;2023-03-17T05:15:02;2.80;91.60
12013;DHT22;6065;48.138;16.402;2023-03-17T05:17:29;2.80;91.60
12013;DHT22;6065;48.138;16.402;2023-03-17T05:19:56;2.80;91.70
12013;DHT22;6065;48.138;16.402;2023-03-17T05:22:23;2.80;91.90
12013;DHT22;6065;48.138;16.402;2023-03-17T05:24:49;2.80;92.00
12013;DHT22;6065;48.138;16.402;2023-03-17T05:27:16;2.80;92.10
12013;DHT22;6065;48.138;16.402;2023-03-17T05:29:43;2.80;92.20
12013;DHT22;6065;48.138;16.402;2023-03-17T05:32:11;2.80;92.30
12013;DHT22;6065;48.138;16.402;2023-03-17T05:34:38;2.70;92.50
12013;DHT22;6065;48.138;16.402;2023-03-17T05:37:04;2.70;92.60
12013;DHT22;6065;48.138;16.402;2023-03-17T05:39:32;2.70;92.60
12013;DHT22;6065;48.138;16.402;2023-03-17T05:41:58;2.60;92.70
12013;DHT22;6065;48.138;16.402;2023-03-17T05:44:25;2.60;92.80
12013;DHT22;6065;48.138;16.402;2023-03-17T05:46:52;2.70;92.90
12013;DHT22;6065;48.138;16.402;2023-03-17T05:49:21;2.70;92.90
12013;DHT22;6065;48.138;16.402;2023-03-17T05:51:48;2.70;93.00
12013;DHT22;6065;48.138;16.402;2023-03-17T05:54:15;2.80;92.90
12013;DHT22;6065;48.138;16.402;2023-03-17T05:56:42;2.80;92.70
12013;DHT22;6065;48.138;16.402;2023-03-17T05:59:13;2.90;92.50
12013;DHT22;6065;48.138;16.402;2023-03-17T06:01:41;3.00;92.40
12013;DHT22;6065;48.138;16.402;2023-03-17T06:04:07;3.00;92.30
12013;DHT22;6065;48.138;16.402;2023-03-17T06:06:35;3.00;92.30
12013;DHT22;6065;48.138;16.402;2023-03-17T06:09:03;3.10;92.40
12013;DHT22;6065;48.138;16.402;2023-03-17T06:11:30;3.20;92.30
12013;DHT22;6065;48.138;16.402;2023-03-17T06:13:57;3.20;92.20
12013;DHT22;6065;48.138;16.402;2023-03-17T06:16:23;3.30;92.00
12013;DHT22;6065;48.138;16.402;2023-03-17T06:18:53;3.40;92.00
12013;DHT22;6065;48.138;16.402;2023-03-17T06:21:19;3.40;92.00
12013;DHT22;6065;48.138;16.402;2023-03-17T06:23:47;3.50;92.10
12013;DHT22;6065;48.138;16.402;2023-03-17T06:26:16;3.50;92.00
12013;DHT22;6065;48.138;16.402;2023-03-17T06:28:56;3.70;92.00
12013;DHT22;6065;48.138;16.402;2023-03-17T06:31:23;3.60;91.90
12013;DHT22;6065;48.138;16.402;2023-03-17T06:33:50;3.70;91.70
12013;DHT22;6065;48.138;16.402;2023-03-17T06:36:17;3.80;91.40
12013;DHT22;6065;48.138;16.402;2023-03-17T06:38:44;4.00;90.60
12013;DHT22;6065;48.138;16.402;2023-03-17T06:41:12;4.20;90.70
12013;DHT22;6065;48.138;16.402;2023-03-17T06:43:39;4.20;90.80
12013;DHT22;6065;48.138;16.402;2023-03-17T06:46:06;4.30;90.40
12013;DHT22;6065;48.138;16.402;2023-03-17T06:48:33;4.30;90.30
12013;DHT22;6065;48.138;16.402;2023-03-17T06:51:00;4.40;90.10
12013;DHT22;6065;48.138;16.402;2023-03-17T06:53:27;4.50;90.00
12013;DHT22;6065;48.138;16.402;2023-03-17T06:55:53;4.60;89.80
12013;DHT22;6065;48.138;16.402;2023-03-17T06:58:22;4.70;89.10
12013;DHT22;6065;48.138;16.402;2023-03-17T07:03:18;4.80;88.50
12013;DHT22;6065;48.138;16.402;2023-03-17T07:05:46;4.90;88.60
12013;DHT22;6065;48.138;16.402;2023-03-17T07:08:13;5.00;88.50
12013;DHT22;6065;48.138;16.402;2023-03-17T07:10:40;5.00;88.20
12013;DHT22;6065;48.138;16.402;2023-03-17T07:13:07;5.10;88.20
12013;DHT22;6065;48.138;16.402;2023-03-17T07:15:35;5.10;88.80
12013;DHT22;6065;48.138;16.402;2023-03-17T07:18:03;5.20;88.20
12013;DHT22;6065;48.138;16.402;2023-03-17T07:20:30;5.30;87.80
12013;DHT22;6065;48.138;16.402;2023-03-17T07:22:57;5.30;88.10
12013;DHT22;6065;48.138;16.402;2023-03-17T07:25:24;5.30;88.00
12013;DHT22;6065;48.138;16.402;2023-03-17T07:27:51;5.40;88.10
12013;DHT22;6065;48.138;16.402;2023-03-17T07:30:17;5.50;88.00
12013;DHT22;6065;48.138;16.402;2023-03-17T07:32:46;5.50;88.30
12013;DHT22;6065;48.138;16.402;2023-03-17T07:35:13;5.60;88.20
12013;DHT22;6065;48.138;16.402;2023-03-17T07:37:40;5.70;88.20
12013;DHT22;6065;48.138;16.402;2023-03-17T07:40:07;5.80;87.20
12013;DHT22;6065;48.138;16.402;2023-03-17T07:42:35;5.80;87.20
12013;DHT22;6065;48.138;16.402;2023-03-17T07:45:02;5.90;87.00
12013;DHT22;6065;48.138;16.402;2023-03-17T07:47:30;6.00;86.70
12013;DHT22;6065;48.138;16.402;2023-03-17T07:49:58;6.10;86.80
12013;DHT22;6065;48.138;16.402;2023-03-17T07:52:24;6.30;86.40
12013;DHT22;6065;48.138;16.402;2023-03-17T07:54:51;6.40;86.40
12013;DHT22;6065;48.138;16.402;2023-03-17T07:57:18;6.50;85.70
12013;DHT22;6065;48.138;16.402;2023-03-17T07:59:46;6.60;85.20
12013;DHT22;6065;48.138;16.402;2023-03-17T08:02:13;6.60;85.70
12013;DHT22;6065;48.138;16.402;2023-03-17T08:04:41;6.60;86.20
12013;DHT22;6065;48.138;16.402;2023-03-17T08:07:09;6.70;85.70
12013;DHT22;6065;48.138;16.402;2023-03-17T08:09:37;6.80;84.40
12013;DHT22;6065;48.138;16.402;2023-03-17T08:12:04;6.90;84.60
12013;DHT22;6065;48.138;16.402;2023-03-17T08:14:31;6.90;84.30
12013;DHT22;6065;48.138;16.402;2023-03-17T08:16:58;7.00;84.70
12013;DHT22;6065;48.138;16.402;2023-03-17T08:19:24;7.10;84.00
12013;DHT22;6065;48.138;16.402;2023-03-17T08:21:51;7.20;83.50
12013;DHT22;6065;48.138;16.402;2023-03-17T08:24:19;7.30;83.00
12013;DHT22;6065;48.138;16.402;2023-03-17T08:26:46;7.30;83.20
12013;DHT22;6065;48.138;16.402;2023-03-17T08:29:13;7.40;83.00
12013;DHT22;6065;48.138;16.402;2023-03-17T08:31:40;7.50;83.50
12013;DHT22;6065;48.138;16.402;2023-03-17T08:34:07;7.50;83.30
12013;DHT22;6065;48.138;16.402;2023-03-17T08:36:34;7.50;83.50
12013;DHT22;6065;48.138;16.402;2023-03-17T08:39:01;7.60;82.80
12013;DHT22;6065;48.138;16.402;2023-03-17T08:41:30;7.60;82.90
12013;DHT22;6065;48.138;16.402;2023-03-17T08:43:57;7.60;83.10
12013;DHT22;6065;48.138;16.402;2023-03-17T08:46:25;7.60;83.30
12013;DHT22;6065;48.138;16.402;2023-03-17T08:48:53;7.70;83.70
12013;DHT22;6065;48.138;16.402;2023-03-17T08:51:20;7.70;83.10
12013;DHT22;6065;48.138;16.402;2023-03-17T08:53:49;7.70;82.90
12013;DHT22;6065;48.138;16.402;2023-03-17T08:56:16;7.80;83.60
12013;DHT22;6065;48.138;16.402;2023-03-17T08:58:44;7.80;83.60
12013;DHT22;6065;48.138;16.402;2023-03-17T09:01:11;7.90;83.30
12013;DHT22;6065;48.138;16.402;2023-03-17T09:03:38;7.90;82.80
12013;DHT22;6065;48.138;16.402;2023-03-17T09:06:05;8.00;83.40
12013;DHT22;6065;48.138;16.402;2023-03-17T09:08:32;8.10;83.80
12013;DHT22;6065;48.138;16.402;2023-03-17T09:10:58;8.20;83.90
12013;DHT22;6065;48.138;16.402;2023-03-17T09:13:25;8.20;82.30
12013;DHT22;6065;48.138;16.402;2023-03-17T09:15:53;8.20;83.20
12013;DHT22;6065;48.138;16.402;2023-03-17T09:18:20;8.20;83.10
12013;DHT22;6065;48.138;16.402;2023-03-17T09:20:48;8.30;82.80
12013;DHT22;6065;48.138;16.402;2023-03-17T09:23:14;8.30;82.80
12013;DHT22;6065;48.138;16.402;2023-03-17T09:25:41;8.40;83.60
12013;DHT22;6065;48.138;16.402;2023-03-17T09:28:09;8.50;83.20
12013;DHT22;6065;48.138;16.402;2023-03-17T09:30:36;8.60;82.20
12013;DHT22;6065;48.138;16.402;2023-03-17T09:33:06;8.60;81.30
12013;DHT22;6065;48.138;16.402;2023-03-17T09:35:33;8.70;81.30
12013;DHT22;6065;48.138;16.402;2023-03-17T09:38:00;8.70;81.50
12013;DHT22;6065;48.138;16.402;2023-03-17T09:40:30;8.80;81.50
12013;DHT22;6065;48.138;16.402;2023-03-17T09:42:59;8.90;78.70
12013;DHT22;6065;48.138;16.402;2023-03-17T09:45:29;8.90;78.20
12013;DHT22;6065;48.138;16.402;2023-03-17T09:50:42;8.90;77.90
12013;DHT22;6065;48.138;16.402;2023-03-17T09:53:11;8.90;79.70
12013;DHT22;6065;48.138;16.402;2023-03-17T09:55:40;9.00;77.40
12013;DHT22;6065;48.138;16.402;2023-03-17T09:58:09;9.10;78.90
12013;DHT22;6065;48.138;16.402;2023-03-17T10:00:37;9.20;75.30
12013;DHT22;6065;48.138;16.402;2023-03-17T10:03:04;9.20;78.30
12013;DHT22;6065;48.138;16.402;2023-03-17T10:05:33;9.20;78.60
12013;DHT22;6065;48.138;16.402;2023-03-17T10:08:03;9.30;79.60
12013;DHT22;6065;48.138;16.402;2023-03-17T10:10:34;9.30;78.20
12013;DHT22;6065;48.138;16.402;2023-03-17T10:13:05;9.30;79.10
12013;DHT22;6065;48.138;16.402;2023-03-17T10:15:34;9.40;77.00
12013;DHT22;6065;48.138;16.402;2023-03-17T10:18:07;9.50;76.30
12013;DHT22;6065;48.138;16.402;2023-03-17T10:20:34;9.60;77.70
12013;DHT22;6065;48.138;16.402;2023-03-17T10:23:05;9.70;78.30
12013;DHT22;6065;48.138;16.402;2023-03-17T10:25:33;9.80;76.40
12013;DHT22;6065;48.138;16.402;2023-03-17T10:28:00;9.90;75.50
12013;DHT22;6065;48.138;16.402;2023-03-17T10:30:29;10.00;73.00
12013;DHT22;6065;48.138;16.402;2023-03-17T10:32:57;10.10;72.70
12013;DHT22;6065;48.138;16.402;2023-03-17T10:35:25;10.10;73.50
12013;DHT22;6065;48.138;16.402;2023-03-17T10:37:52;10.10;72.40
12013;DHT22;6065;48.138;16.402;2023-03-17T10:40:21;10.20;71.50
12013;DHT22;6065;48.138;16.402;2023-03-17T10:42:50;10.10;72.00
12013;DHT22;6065;48.138;16.402;2023-03-17T10:45:20;10.10;71.60
12013;DHT22;6065;48.138;16.402;2023-03-17T10:47:49;10.20;71.00
12013;DHT22;6065;48.138;16.402;2023-03-17T10:50:20;10.40;69.20
12013;DHT22;6065;48.138;16.402;2023-03-17T10:52:50;10.50;69.90
12013;DHT22;6065;48.138;16.402;2023-03-17T10:55:18;10.60;71.10
12013;DHT22;6065;48.138;16.402;2023-03-17T10:57:50;10.70;68.40
12013;DHT22;6065;48.138;16.402;2023-03-17T11:00:18;10.70;68.60
12013;DHT22;6065;48.138;16.402;2023-03-17T11:02:54;10.80;67.40
12013;DHT22;6065;48.138;16.402;2023-03-17T11:05:22;10.90;67.10
12013;DHT22;6065;48.138;16.402;2023-03-17T11:07:49;10.90;67.10
12013;DHT22;6065;48.138;16.402;2023-03-17T11:10:23;11.00;67.20
12013;DHT22;6065;48.138;16.402;2023-03-17T11:12:56;11.10;66.90
12013;DHT22;6065;48.138;16.402;2023-03-17T11:15:27;11.20;66.40
12013;DHT22;6065;48.138;16.402;2023-03-17T11:17:55;11.20;66.30
12013;DHT22;6065;48.138;16.402;2023-03-17T11:20:26;11.30;65.10
12013;DHT22;6065;48.138;16.402;2023-03-17T11:22:55;11.40;65.40
12013;DHT22;6065;48.138;16.402;2023-03-17T11:25:23;11.40;67.30
12013;DHT22;6065;48.138;16.402;2023-03-17T11:27:52;11.60;66.40
12013;DHT22;6065;48.138;16.402;2023-03-17T11:30:26;11.70;64.70
12013;DHT22;6065;48.138;16.402;2023-03-17T11:32:56;11.70;64.40
12013;DHT22;6065;48.138;16.402;2023-03-17T11:35:31;11.70;64.50
12013;DHT22;6065;48.138;16.402;2023-03-17T11:43:35;12.00;65.00
12013;DHT22;6065;48.138;16.402;2023-03-17T11:46:06;12.10;64.30
12013;DHT22;6065;48.138;16.402;2023-03-17T11:48:40;12.20;65.50
12013;DHT22;6065;48.138;16.402;2023-03-17T11:51:14;12.30;64.20
12013;DHT22;6065;48.138;16.402;2023-03-17T11:53:51;12.30;65.20
12013;DHT22;6065;48.138;16.402;2023-03-17T11:56:22;12.50;64.60
12013;DHT22;6065;48.138;16.402;2023-03-17T11:58:51;12.50;63.20
12013;DHT22;6065;48.138;16.402;2023-03-17T12:01:21;12.50;63.10
12013;DHT22;6065;48.138;16.402;2023-03-17T12:03:52;12.50;63.60
12013;DHT22;6065;48.138;16.402;2023-03-17T12:06:20;12.60;64.30
12013;DHT22;6065;48.138;16.402;2023-03-17T12:08:51;12.60;64.80
12013;DHT22;6065;48.138;16.402;2023-03-17T12:11:19;12.80;63.70
12013;DHT22;6065;48.138;16.402;2023-03-17T12:13:48;12.80;63.30
12013;DHT22;6065;48.138;16.402;2023-03-17T12:16:17;12.90;62.70
12013;DHT22;6065;48.138;16.402;2023-03-17T12:18:51;13.00;63.00
12013;DHT22;6065;48.138;16.402;2023-03-17T12:21:21;13.00;61.60
12013;DHT22;6065;48.138;16.402;2023-03-17T12:23:53;12.90;62.40
12013;DHT22;6065;48.138;16.402;2023-03-17T12:26:22;12.90;62.30
12013;DHT22;6065;48.138;16.402;2023-03-17T12:28:55;12.90;62.50
12013;DHT22;6065;48.138;16.402;2023-03-17T12:31:24;13.10;62.60
12013;DHT22;6065;48.138;16.402;2023-03-17T12:33:53;13.10;61.20
12013;DHT22;6065;48.138;16.402;2023-03-17T12:36:23;13.10;61.30
12013;DHT22;6065;48.138;16.402;2023-03-17T12:38:51;13.20;60.90
12013;DHT22;6065;48.138;16.402;2023-03-17T12:44:18;13.10;60.70
12013;DHT22;6065;48.138;16.402;2023-03-17T12:46:51;13.00;60.20
12013;DHT22;6065;48.138;16.402;2023-03-17T12:52:08;13.10;60.70
12013;DHT22;6065;48.138;16.402;2023-03-17T12:54:39;13.20;60.50
12013;DHT22;6065;48.138;16.402;2023-03-17T12:57:11;13.30;59.30
12013;DHT22;6065;48.138;16.402;2023-03-17T12:59:40;13.30;59.40
12013;DHT22;6065;48.138;16.402;2023-03-17T13:02:12;13.40;59.80
12013;DHT22;6065;48.138;16.402;2023-03-17T13:04:41;13.40;58.60
12013;DHT22;6065;48.138;16.402;2023-03-17T13:07:14;13.40;58.20
12013;DHT22;6065;48.138;16.402;2023-03-17T13:09:45;13.40;59.00
12013;DHT22;6065;48.138;16.402;2023-03-17T13:14:58;13.50;58.20
12013;DHT22;6065;48.138;16.402;2023-03-17T13:17:29;13.60;58.00
12013;DHT22;6065;48.138;16.402;2023-03-17T13:20:02;13.60;58.30
12013;DHT22;6065;48.138;16.402;2023-03-17T13:22:34;13.70;59.00
12013;DHT22;6065;48.138;16.402;2023-03-17T13:25:14;13.70;57.50
12013;DHT22;6065;48.138;16.402;2023-03-17T13:27:51;13.70;58.20
12013;DHT22;6065;48.138;16.402;2023-03-17T13:33:15;13.70;57.40
12013;DHT22;6065;48.138;16.402;2023-03-17T13:35:46;13.70;57.10
12013;DHT22;6065;48.138;16.402;2023-03-17T13:41:31;13.70;56.10
12013;DHT22;6065;48.138;16.402;2023-03-17T13:44:08;13.60;56.40
12013;DHT22;6065;48.138;16.402;2023-03-17T13:46:40;13.60;56.70
12013;DHT22;6065;48.138;16.402;2023-03-17T13:49:22;13.50;56.70
12013;DHT22;6065;48.138;16.402;2023-03-17T13:51:50;13.40;56.10
12013;DHT22;6065;48.138;16.402;2023-03-17T13:54:19;13.30;56.00
12013;DHT22;6065;48.138;16.402;2023-03-17T13:56:47;13.30;56.40
12013;DHT22;6065;48.138;16.402;2023-03-17T13:59:15;13.30;56.60
12013;DHT22;6065;48.138;16.402;2023-03-17T14:01:44;13.20;56.80
12013;DHT22;6065;48.138;16.402;2023-03-17T14:04:19;13.20;56.60
12013;DHT22;6065;48.138;16.402;2023-03-17T14:06:47;13.20;55.90
12013;DHT22;6065;48.138;16.402;2023-03-17T14:09:18;13.20;56.90
12013;DHT22;6065;48.138;16.402;2023-03-17T14:11:51;13.30;56.40
12013;DHT22;6065;48.138;16.402;2023-03-17T14:14:20;13.30;56.10
12013;DHT22;6065;48.138;16.402;2023-03-17T14:16:51;13.30;56.70
12013;DHT22;6065;48.138;16.402;2023-03-17T14:19:20;13.30;56.00
12013;DHT22;6065;48.138;16.402;2023-03-17T14:21:47;13.30;55.90
12013;DHT22;6065;48.138;16.402;2023-03-17T14:24:18;13.30;55.80
12013;DHT22;6065;48.138;16.402;2023-03-17T14:26:46;13.20;56.20
12013;DHT22;6065;48.138;16.402;2023-03-17T14:29:15;13.20;56.40
12013;DHT22;6065;48.138;16.402;2023-03-17T14:31:45;13.20;56.00
12013;DHT22;6065;48.138;16.402;2023-03-17T14:34:12;13.30;55.80
12013;DHT22;6065;48.138;16.402;2023-03-17T14:36:40;13.20;56.10
12013;DHT22;6065;48.138;16.402;2023-03-17T14:39:17;13.10;56.70
12013;DHT22;6065;48.138;16.402;2023-03-17T14:41:46;13.10;55.60
12013;DHT22;6065;48.138;16.402;2023-03-17T14:44:23;13.10;55.10
12013;DHT22;6065;48.138;16.402;2023-03-17T14:46:49;13.00;55.70
12013;DHT22;6065;48.138;16.402;2023-03-17T14:49:17;13.10;56.10
12013;DHT22;6065;48.138;16.402;2023-03-17T14:51:44;13.00;55.70
12013;DHT22;6065;48.138;16.402;2023-03-17T14:54:14;13.00;55.20
12013;DHT22;6065;48.138;16.402;2023-03-17T14:56:42;13.00;55.80
12013;DHT22;6065;48.138;16.402;2023-03-17T14:59:16;13.10;56.40
12013;DHT22;6065;48.138;16.402;2023-03-17T15:01:44;13.00;55.90
12013;DHT22;6065;48.138;16.402;2023-03-17T15:04:12;13.00;56.60
12013;DHT22;6065;48.138;16.402;2023-03-17T15:06:46;13.00;56.30
12013;DHT22;6065;48.138;16.402;2023-03-17T15:09:17;13.00;56.30
12013;DHT22;6065;48.138;16.402;2023-03-17T15:11:44;13.00;57.10
12013;DHT22;6065;48.138;16.402;2023-03-17T15:14:14;12.90;56.50
12013;DHT22;6065;48.138;16.402;2023-03-17T15:16:41;12.90;56.80
12013;DHT22;6065;48.138;16.402;2023-03-17T15:19:17;12.90;55.90
12013;DHT22;6065;48.138;16.402;2023-03-17T15:21:44;12.80;55.50
12013;DHT22;6065;48.138;16.402;2023-03-17T15:24:22;12.80;56.40
12013;DHT22;6065;48.138;16.402;2023-03-17T15:26:49;12.70;56.00
12013;DHT22;6065;48.138;16.402;2023-03-17T15:29:15;12.70;56.10
12013;DHT22;6065;48.138;16.402;2023-03-17T15:31:42;12.70;55.80
12013;DHT22;6065;48.138;16.402;2023-03-17T15:34:10;12.60;55.90
12013;DHT22;6065;48.138;16.402;2023-03-17T15:36:38;12.60;56.30
12013;DHT22;6065;48.138;16.402;2023-03-17T15:39:05;12.50;56.50
12013;DHT22;6065;48.138;16.402;2023-03-17T15:41:31;12.40;56.70
12013;DHT22;6065;48.138;16.402;2023-03-17T15:43:58;12.40;56.50
12013;DHT22;6065;48.138;16.402;2023-03-17T15:46:25;12.40;56.70
12013;DHT22;6065;48.138;16.402;2023-03-17T15:48:55;12.30;56.50
12013;DHT22;6065;48.138;16.402;2023-03-17T15:51:21;12.20;56.30
12013;DHT22;6065;48.138;16.402;2023-03-17T15:53:49;12.20;56.60
12013;DHT22;6065;48.138;16.402;2023-03-17T15:56:17;12.20;57.30
12013;DHT22;6065;48.138;16.402;2023-03-17T15:58:45;12.10;56.60
12013;DHT22;6065;48.138;16.402;2023-03-17T16:01:12;12.00;56.10
12013;DHT22;6065;48.138;16.402;2023-03-17T16:03:39;12.00;55.50
12013;DHT22;6065;48.138;16.402;2023-03-17T16:06:10;12.00;56.10
12013;DHT22;6065;48.138;16.402;2023-03-17T16:08:39;11.90;56.30
12013;DHT22;6065;48.138;16.402;2023-03-17T16:11:09;11.80;57.30
12013;DHT22;6065;48.138;16.402;2023-03-17T16:13:39;11.80;57.10
12013;DHT22;6065;48.138;16.402;2023-03-17T16:16:05;11.70;57.60
12013;DHT22;6065;48.138;16.402;2023-03-17T16:18:34;11.60;57.30